sensor_id;sensor_type;location;lat;lon;timestamp;temperature;humidity
73322;DHT22;61549;37.044;22.128;2023-02-28T00:00:26;20.50;50.40
73322;DHT22;61549;37.044;22.128;2023-02-28T00:02:52;20.40;51.00
73322;DHT22;61549;37.044;22.128;2023-02-28T00:05:20;20.50;51.30
73322;DHT22;61549;37.044;22.128;2023-02-28T00:07:47;20.40;51.10
73322;DHT22;61549;37.044;22.128;2023-02-28T00:10:16;20.40;51.50
73322;DHT22;61549;37.044;22.128;2023-02-28T00:12:47;20.40;51.70
73322;DHT22;61549;37.044;22.128;2023-02-28T00:18:54;20.30;52.20
73322;DHT22;61549;37.044;22.128;2023-02-28T00:21:20;20.10;51.30
73322;DHT22;61549;37.044;22.128;2023-02-28T00:23:47;20.00;51.20
73322;DHT22;61549;37.044;22.128;2023-02-28T00:26:12;19.90;52.30
73322;DHT22;61549;37.044;22.128;2023-02-28T00:28:38;19.90;53.00
73322;DHT22;61549;37.044;22.128;2023-02-28T00:31:04;19.90;53.30
73322;DHT22;61549;37.044;22.128;2023-02-28T00:33:30;20.00;53.90
73322;DHT22;61549;37.044;22.128;2023-02-28T00:36:04;20.00;54.90
73322;DHT22;61549;37.044;22.128;2023-02-28T00:38:30;20.00;54.30
73322;DHT22;61549;37.044;22.128;2023-02-28T00:40:56;19.90;54.60
73322;DHT22;61549;37.044;22.128;2023-02-28T00:43:22;19.90;54.00
73322;DHT22;61549;37.044;22.128;2023-02-28T00:45:48;19.90;53.40
73322;DHT22;61549;37.044;22.128;2023-02-28T00:48:14;19.80;52.70
73322;DHT22;61549;37.044;22.128;2023-02-28T00:50:39;19.70;52.10
73322;DHT22;61549;37.044;22.128;2023-02-28T00:53:05;19.60;52.20
73322;DHT22;61549;37.044;22.128;2023-02-28T00:55:31;19.50;53.50
73322;DHT22;61549;37.044;22.128;2023-02-28T00:57:57;19.60;53.60
73322;DHT22;61549;37.044;22.128;2023-02-28T01:00:23;19.30;53.90
73322;DHT22;61549;37.044;22.128;2023-02-28T01:02:49;19.30;53.70
73322;DHT22;61549;37.044;22.128;2023-02-28T01:08:24;19.50;54.00
73322;DHT22;61549;37.044;22.128;2023-02-28T01:17:36;19.50;54.90
73322;DHT22;61549;37.044;22.128;2023-02-28T01:20:02;19.50;54.90
73322;DHT22;61549;37.044;22.128;2023-02-28T01:22:28;19.50;55.00
73322;DHT22;61549;37.044;22.128;2023-02-28T01:24:54;19.50;55.00
73322;DHT22;61549;37.044;22.128;2023-02-28T01:27:20;19.50;55.10
73322;DHT22;61549;37.044;22.128;2023-02-28T01:29:46;19.50;55.10
73322;DHT22;61549;37.044;22.128;2023-02-28T01:32:11;19.50;54.60
73322;DHT22;61549;37.044;22.128;2023-02-28T01:34:37;19.50;53.40
73322;DHT22;61549;37.044;22.128;2023-02-28T01:37:03;19.60;53.30
73322;DHT22;61549;37.044;22.128;2023-02-28T01:39:29;19.50;53.30
73322;DHT22;61549;37.044;22.128;2023-02-28T01:41:55;19.30;53.70
73322;DHT22;61549;37.044;22.128;2023-02-28T01:47:21;19.40;54.10
73322;DHT22;61549;37.044;22.128;2023-02-28T01:49:48;19.50;53.50
73322;DHT22;61549;37.044;22.128;2023-02-28T01:52:15;19.50;52.80
73322;DHT22;61549;37.044;22.128;2023-02-28T01:54:49;19.60;52.20
73322;DHT22;61549;37.044;22.128;2023-02-28T02:00:37;19.60;51.00
73322;DHT22;61549;37.044;22.128;2023-02-28T02:03:07;19.50;50.00
73322;DHT22;61549;37.044;22.128;2023-02-28T02:05:38;19.50;50.00
73322;DHT22;61549;37.044;22.128;2023-02-28T02:08:06;19.60;48.90
73322;DHT22;61549;37.044;22.128;2023-02-28T02:10:40;19.60;48.50
73322;DHT22;61549;37.044;22.128;2023-02-28T02:37:37;19.60;48.30
73322;DHT22;61549;37.044;22.128;2023-02-28T02:40:19;19.50;49.10
73322;DHT22;61549;37.044;22.128;2023-02-28T02:43:01;19.60;49.10
73322;DHT22;61549;37.044;22.128;2023-02-28T02:45:39;19.50;48.50
73322;DHT22;61549;37.044;22.128;2023-02-28T02:48:11;19.40;49.50
73322;DHT22;61549;37.044;22.128;2023-02-28T02:53:50;19.50;49.40
73322;DHT22;61549;37.044;22.128;2023-02-28T02:56:20;19.30;50.00
73322;DHT22;61549;37.044;22.128;2023-02-28T02:58:51;19.30;50.00
73322;DHT22;61549;37.044;22.128;2023-02-28T03:01:21;19.30;49.20
73322;DHT22;61549;37.044;22.128;2023-02-28T03:03:58;19.40;49.30
73322;DHT22;61549;37.044;22.128;2023-02-28T03:06:25;19.40;49.50
73322;DHT22;61549;37.044;22.128;2023-02-28T03:08:51;19.40;49.10
73322;DHT22;61549;37.044;22.128;2023-02-28T03:11:17;19.40;48.70
73322;DHT22;61549;37.044;22.128;2023-02-28T03:27:48;19.60;50.20
73322;DHT22;61549;37.044;22.128;2023-02-28T03:30:24;19.60;51.10
73322;DHT22;61549;37.044;22.128;2023-02-28T03:33:00;19.50;51.60
73322;DHT22;61549;37.044;22.128;2023-02-28T03:35:32;19.50;51.40
73322;DHT22;61549;37.044;22.128;2023-02-28T03:38:16;19.50;51.10
73322;DHT22;61549;37.044;22.128;2023-02-28T03:40:49;19.50;50.90
73322;DHT22;61549;37.044;22.128;2023-02-28T03:43:22;19.60;49.60
73322;DHT22;61549;37.044;22.128;2023-02-28T03:45:50;19.40;49.90
73322;DHT22;61549;37.044;22.128;2023-02-28T03:50:49;18.90;50.50
73322;DHT22;61549;37.044;22.128;2023-02-28T03:53:23;19.00;50.40
73322;DHT22;61549;37.044;22.128;2023-02-28T03:56:06;19.20;50.80
73322;DHT22;61549;37.044;22.128;2023-02-28T03:59:21;19.30;51.90
73322;DHT22;61549;37.044;22.128;2023-02-28T04:01:38;19.30;52.00
73322;DHT22;61549;37.044;22.128;2023-02-28T04:04:07;19.40;52.30
73322;DHT22;61549;37.044;22.128;2023-02-28T04:06:34;19.40;52.40
73322;DHT22;61549;37.044;22.128;2023-02-28T04:09:01;19.30;52.30
73322;DHT22;61549;37.044;22.128;2023-02-28T04:11:38;19.20;52.60
73322;DHT22;61549;37.044;22.128;2023-02-28T04:14:21;19.20;52.80
73322;DHT22;61549;37.044;22.128;2023-02-28T04:16:46;19.10;52.60
73322;DHT22;61549;37.044;22.128;2023-02-28T04:19:13;19.10;52.80
73322;DHT22;61549;37.044;22.128;2023-02-28T04:21:51;19.00;51.90
73322;DHT22;61549;37.044;22.128;2023-02-28T04:24:20;19.00;51.40
73322;DHT22;61549;37.044;22.128;2023-02-28T04:26:48;19.00;51.80
73322;DHT22;61549;37.044;22.128;2023-02-28T04:29:20;18.90;50.60
73322;DHT22;61549;37.044;22.128;2023-02-28T04:31:51;19.00;51.20
73322;DHT22;61549;37.044;22.128;2023-02-28T04:34:19;19.00;51.90
73322;DHT22;61549;37.044;22.128;2023-02-28T04:37:09;19.00;52.40
73322;DHT22;61549;37.044;22.128;2023-02-28T04:39:36;19.10;51.20
73322;DHT22;61549;37.044;22.128;2023-02-28T04:42:02;19.10;51.10
73322;DHT22;61549;37.044;22.128;2023-02-28T04:44:28;19.00;50.90
73322;DHT22;61549;37.044;22.128;2023-02-28T04:46:54;19.00;50.70
73322;DHT22;61549;37.044;22.128;2023-02-28T04:49:20;19.00;49.80
73322;DHT22;61549;37.044;22.128;2023-02-28T04:51:46;18.90;49.80
73322;DHT22;61549;37.044;22.128;2023-02-28T04:54:11;19.00;51.30
73322;DHT22;61549;37.044;22.128;2023-02-28T04:56:40;19.00;51.00
73322;DHT22;61549;37.044;22.128;2023-02-28T04:59:06;19.00;51.00
73322;DHT22;61549;37.044;22.128;2023-02-28T05:01:33;19.00;52.50
73322;DHT22;61549;37.044;22.128;2023-02-28T05:04:02;19.00;50.10
73322;DHT22;61549;37.044;22.128;2023-02-28T05:06:32;18.90;49.20
73322;DHT22;61549;37.044;22.128;2023-02-28T05:08:58;18.80;48.20
73322;DHT22;61549;37.044;22.128;2023-02-28T05:11:30;18.80;49.90
73322;DHT22;61549;37.044;22.128;2023-02-28T05:14:03;18.90;50.70
73322;DHT22;61549;37.044;22.128;2023-02-28T05:16:30;18.80;48.80
73322;DHT22;61549;37.044;22.128;2023-02-28T05:18:56;18.80;49.10
73322;DHT22;61549;37.044;22.128;2023-02-28T05:21:30;18.90;49.40
73322;DHT22;61549;37.044;22.128;2023-02-28T05:23:59;18.80;48.90
73322;DHT22;61549;37.044;22.128;2023-02-28T05:26:26;19.00;50.40
73322;DHT22;61549;37.044;22.128;2023-02-28T05:28:52;19.00;50.20
73322;DHT22;61549;37.044;22.128;2023-02-28T05:31:18;19.00;49.70
73322;DHT22;61549;37.044;22.128;2023-02-28T05:33:44;18.90;49.50
73322;DHT22;61549;37.044;22.128;2023-02-28T05:36:10;18.90;49.80
73322;DHT22;61549;37.044;22.128;2023-02-28T05:38:36;18.90;49.50
73322;DHT22;61549;37.044;22.128;2023-02-28T05:41:09;19.00;49.50
73322;DHT22;61549;37.044;22.128;2023-02-28T05:43:36;19.00;49.10
73322;DHT22;61549;37.044;22.128;2023-02-28T05:46:05;18.90;49.00
73322;DHT22;61549;37.044;22.128;2023-02-28T05:48:36;18.90;51.00
73322;DHT22;61549;37.044;22.128;2023-02-28T05:51:02;19.00;51.00
73322;DHT22;61549;37.044;22.128;2023-02-28T05:53:29;19.00;50.00
73322;DHT22;61549;37.044;22.128;2023-02-28T05:55:55;19.00;48.50
73322;DHT22;61549;37.044;22.128;2023-02-28T05:58:21;18.80;48.20
73322;DHT22;61549;37.044;22.128;2023-02-28T06:00:47;18.80;48.10
73322;DHT22;61549;37.044;22.128;2023-02-28T06:03:14;18.80;49.50
73322;DHT22;61549;37.044;22.128;2023-02-28T06:05:43;18.80;50.90
73322;DHT22;61549;37.044;22.128;2023-02-28T06:08:09;18.90;49.80
73322;DHT22;61549;37.044;22.128;2023-02-28T06:10:35;18.90;50.30
73322;DHT22;61549;37.044;22.128;2023-02-28T06:13:05;19.00;50.40
73322;DHT22;61549;37.044;22.128;2023-02-28T06:15:31;19.00;50.20
73322;DHT22;61549;37.044;22.128;2023-02-28T06:17:57;19.10;51.10
73322;DHT22;61549;37.044;22.128;2023-02-28T06:20:24;19.10;50.40
73322;DHT22;61549;37.044;22.128;2023-02-28T06:22:51;19.10;50.80
73322;DHT22;61549;37.044;22.128;2023-02-28T06:25:19;19.10;51.30
73322;DHT22;61549;37.044;22.128;2023-02-28T06:27:45;19.20;51.40
73322;DHT22;61549;37.044;22.128;2023-02-28T06:30:11;19.20;51.00
73322;DHT22;61549;37.044;22.128;2023-02-28T06:32:37;19.20;51.00
73322;DHT22;61549;37.044;22.128;2023-02-28T06:35:04;19.20;51.50
73322;DHT22;61549;37.044;22.128;2023-02-28T06:37:31;19.30;50.80
73322;DHT22;61549;37.044;22.128;2023-02-28T06:39:57;19.30;50.60
73322;DHT22;61549;37.044;22.128;2023-02-28T06:42:24;19.30;50.20
73322;DHT22;61549;37.044;22.128;2023-02-28T06:44:57;19.30;51.50
73322;DHT22;61549;37.044;22.128;2023-02-28T06:47:23;19.30;50.30
73322;DHT22;61549;37.044;22.128;2023-02-28T06:49:50;19.30;50.10
73322;DHT22;61549;37.044;22.128;2023-02-28T06:52:16;19.20;50.10
73322;DHT22;61549;37.044;22.128;2023-02-28T06:54:46;19.30;49.50
73322;DHT22;61549;37.044;22.128;2023-02-28T06:57:17;19.30;50.40
73322;DHT22;61549;37.044;22.128;2023-02-28T06:59:43;19.50;50.40
73322;DHT22;61549;37.044;22.128;2023-02-28T07:02:09;19.50;50.60
73322;DHT22;61549;37.044;22.128;2023-02-28T07:04:35;19.60;49.90
73322;DHT22;61549;37.044;22.128;2023-02-28T07:07:00;19.60;50.50
73322;DHT22;61549;37.044;22.128;2023-02-28T07:09:26;19.60;50.90
73322;DHT22;61549;37.044;22.128;2023-02-28T07:12:00;19.70;49.90
73322;DHT22;61549;37.044;22.128;2023-02-28T07:14:26;19.70;49.80
73322;DHT22;61549;37.044;22.128;2023-02-28T07:16:52;19.70;48.70
73322;DHT22;61549;37.044;22.128;2023-02-28T07:19:17;19.70;48.90
73322;DHT22;61549;37.044;22.128;2023-02-28T07:21:43;19.70;50.10
73322;DHT22;61549;37.044;22.128;2023-02-28T07:24:09;19.80;52.00
73322;DHT22;61549;37.044;22.128;2023-02-28T07:26:35;19.90;52.70
73322;DHT22;61549;37.044;22.128;2023-02-28T07:29:01;19.90;53.20
73322;DHT22;61549;37.044;22.128;2023-02-28T07:31:31;20.00;54.40
73322;DHT22;61549;37.044;22.128;2023-02-28T07:33:58;20.00;54.20
73322;DHT22;61549;37.044;22.128;2023-02-28T07:36:24;20.00;53.20
73322;DHT22;61549;37.044;22.128;2023-02-28T07:38:50;20.00;52.60
73322;DHT22;61549;37.044;22.128;2023-02-28T07:41:17;20.00;52.00
73322;DHT22;61549;37.044;22.128;2023-02-28T07:43:44;20.00;51.00
73322;DHT22;61549;37.044;22.128;2023-02-28T07:46:12;20.00;52.60
73322;DHT22;61549;37.044;22.128;2023-02-28T07:48:38;20.10;53.20
73322;DHT22;61549;37.044;22.128;2023-02-28T07:51:04;20.10;52.10
73322;DHT22;61549;37.044;22.128;2023-02-28T07:53:30;20.20;51.50
73322;DHT22;61549;37.044;22.128;2023-02-28T07:55:57;20.30;51.60
73322;DHT22;61549;37.044;22.128;2023-02-28T07:58:23;20.40;51.80
73322;DHT22;61549;37.044;22.128;2023-02-28T08:00:49;20.50;53.10
73322;DHT22;61549;37.044;22.128;2023-02-28T08:03:19;20.60;52.20
73322;DHT22;61549;37.044;22.128;2023-02-28T08:05:46;20.50;51.50
73322;DHT22;61549;37.044;22.128;2023-02-28T08:08:14;20.40;51.10
73322;DHT22;61549;37.044;22.128;2023-02-28T08:10:40;20.50;51.10
73322;DHT22;61549;37.044;22.128;2023-02-28T08:13:06;20.60;50.60
73322;DHT22;61549;37.044;22.128;2023-02-28T08:15:32;20.50;50.80
73322;DHT22;61549;37.044;22.128;2023-02-28T08:17:58;20.70;52.00
73322;DHT22;61549;37.044;22.128;2023-02-28T08:20:25;20.70;51.70
73322;DHT22;61549;37.044;22.128;2023-02-28T08:22:52;20.70;51.40
73322;DHT22;61549;37.044;22.128;2023-02-28T08:25:18;20.80;50.00
73322;DHT22;61549;37.044;22.128;2023-02-28T08:27:44;20.80;49.60
73322;DHT22;61549;37.044;22.128;2023-02-28T08:30:14;20.80;50.90
73322;DHT22;61549;37.044;22.128;2023-02-28T08:32:40;20.90;51.40
73322;DHT22;61549;37.044;22.128;2023-02-28T08:35:10;21.00;50.90
73322;DHT22;61549;37.044;22.128;2023-02-28T08:37:36;21.00;50.00
73322;DHT22;61549;37.044;22.128;2023-02-28T08:40:02;21.00;50.30
73322;DHT22;61549;37.044;22.128;2023-02-28T08:42:29;21.10;52.10
73322;DHT22;61549;37.044;22.128;2023-02-28T08:44:56;20.90;48.70
73322;DHT22;61549;37.044;22.128;2023-02-28T08:47:22;20.90;50.20
73322;DHT22;61549;37.044;22.128;2023-02-28T08:49:49;20.90;50.60
73322;DHT22;61549;37.044;22.128;2023-02-28T08:52:15;21.00;50.90
73322;DHT22;61549;37.044;22.128;2023-02-28T08:54:41;20.90;50.90
73322;DHT22;61549;37.044;22.128;2023-02-28T08:57:08;21.00;51.00
73322;DHT22;61549;37.044;22.128;2023-02-28T08:59:33;21.00;51.30
73322;DHT22;61549;37.044;22.128;2023-02-28T09:01:59;21.10;51.40
73322;DHT22;61549;37.044;22.128;2023-02-28T09:04:25;21.10;51.70
73322;DHT22;61549;37.044;22.128;2023-02-28T09:07:01;21.10;52.50
73322;DHT22;61549;37.044;22.128;2023-02-28T09:09:27;21.10;51.30
73322;DHT22;61549;37.044;22.128;2023-02-28T09:11:55;21.10;51.10
73322;DHT22;61549;37.044;22.128;2023-02-28T09:14:22;21.10;51.50
73322;DHT22;61549;37.044;22.128;2023-02-28T09:16:48;21.20;51.20
73322;DHT22;61549;37.044;22.128;2023-02-28T09:19:15;21.20;50.70
73322;DHT22;61549;37.044;22.128;2023-02-28T09:21:41;21.30;51.70
73322;DHT22;61549;37.044;22.128;2023-02-28T09:24:07;21.30;50.00
73322;DHT22;61549;37.044;22.128;2023-02-28T09:26:33;21.30;49.20
73322;DHT22;61549;37.044;22.128;2023-02-28T09:29:01;21.40;49.40
73322;DHT22;61549;37.044;22.128;2023-02-28T09:31:28;21.50;50.00
73322;DHT22;61549;37.044;22.128;2023-02-28T09:33:57;21.50;49.60
73322;DHT22;61549;37.044;22.128;2023-02-28T09:36:26;21.50;49.60
73322;DHT22;61549;37.044;22.128;2023-02-28T09:38:52;21.50;50.30
73322;DHT22;61549;37.044;22.128;2023-02-28T09:41:23;21.30;50.00
73322;DHT22;61549;37.044;22.128;2023-02-28T09:43:58;21.40;51.00
73322;DHT22;61549;37.044;22.128;2023-02-28T09:46:40;21.40;50.50
73322;DHT22;61549;37.044;22.128;2023-02-28T09:49:12;21.40;51.90
73322;DHT22;61549;37.044;22.128;2023-02-28T09:54:17;21.40;54.00
73322;DHT22;61549;37.044;22.128;2023-02-28T10:05:24;21.40;52.80
73322;DHT22;61549;37.044;22.128;2023-02-28T10:08:17;21.40;54.20
73322;DHT22;61549;37.044;22.128;2023-02-28T10:10:45;21.60;54.00
73322;DHT22;61549;37.044;22.128;2023-02-28T10:13:36;21.60;53.70
73322;DHT22;61549;37.044;22.128;2023-02-28T10:16:12;21.60;52.50
73322;DHT22;61549;37.044;22.128;2023-02-28T10:24:34;21.80;51.90
73322;DHT22;61549;37.044;22.128;2023-02-28T10:27:23;21.80;51.30
73322;DHT22;61549;37.044;22.128;2023-02-28T10:29:52;21.90;51.80
73322;DHT22;61549;37.044;22.128;2023-02-28T10:32:21;21.90;51.90
73322;DHT22;61549;37.044;22.128;2023-02-28T10:37:39;22.00;51.70
73322;DHT22;61549;37.044;22.128;2023-02-28T10:40:06;22.00;52.50
73322;DHT22;61549;37.044;22.128;2023-02-28T10:42:32;22.20;53.10
73322;DHT22;61549;37.044;22.128;2023-02-28T10:45:17;22.20;52.40
73322;DHT22;61549;37.044;22.128;2023-02-28T10:47:53;22.20;49.30
73322;DHT22;61549;37.044;22.128;2023-02-28T10:50:45;22.20;50.60
73322;DHT22;61549;37.044;22.128;2023-02-28T10:58:52;22.20;50.80
73322;DHT22;61549;37.044;22.128;2023-02-28T11:01:39;22.30;51.50
73322;DHT22;61549;37.044;22.128;2023-02-28T11:07:27;22.20;52.10
73322;DHT22;61549;37.044;22.128;2023-02-28T11:09:55;22.20;52.50
73322;DHT22;61549;37.044;22.128;2023-02-28T11:12:37;22.30;53.00
73322;DHT22;61549;37.044;22.128;2023-02-28T11:15:18;22.50;51.60
73322;DHT22;61549;37.044;22.128;2023-02-28T11:18:24;22.60;51.80
73322;DHT22;61549;37.044;22.128;2023-02-28T11:20:52;22.70;49.80
73322;DHT22;61549;37.044;22.128;2023-02-28T11:23:19;22.80;48.70
73322;DHT22;61549;37.044;22.128;2023-02-28T11:25:55;22.80;48.90
73322;DHT22;61549;37.044;22.128;2023-02-28T11:28:42;22.90;47.80
73322;DHT22;61549;37.044;22.128;2023-02-28T11:33:42;22.90;48.20
73322;DHT22;61549;37.044;22.128;2023-02-28T11:38:45;23.00;48.40
73322;DHT22;61549;37.044;22.128;2023-02-28T11:41:28;22.90;47.20
73322;DHT22;61549;37.044;22.128;2023-02-28T11:46:52;22.80;46.20
73322;DHT22;61549;37.044;22.128;2023-02-28T11:49:43;22.80;46.90
73322;DHT22;61549;37.044;22.128;2023-02-28T11:52:21;22.90;47.20
73322;DHT22;61549;37.044;22.128;2023-02-28T11:55:06;22.90;46.90
73322;DHT22;61549;37.044;22.128;2023-02-28T12:01:21;22.80;46.80
73322;DHT22;61549;37.044;22.128;2023-02-28T12:04:24;22.90;47.10
73322;DHT22;61549;37.044;22.128;2023-02-28T12:09:44;23.00;45.40
73322;DHT22;61549;37.044;22.128;2023-02-28T12:15:05;23.30;46.60
73322;DHT22;61549;37.044;22.128;2023-02-28T12:18:07;23.60;45.80
73322;DHT22;61549;37.044;22.128;2023-02-28T12:20:41;23.60;44.60
73322;DHT22;61549;37.044;22.128;2023-02-28T12:26:07;24.00;43.60
73322;DHT22;61549;37.044;22.128;2023-02-28T12:29:08;24.30;42.90
73322;DHT22;61549;37.044;22.128;2023-02-28T12:31:40;24.50;43.80
73322;DHT22;61549;37.044;22.128;2023-02-28T12:34:16;24.60;43.30
73322;DHT22;61549;37.044;22.128;2023-02-28T12:36:44;24.80;41.80
73322;DHT22;61549;37.044;22.128;2023-02-28T12:39:30;24.80;40.80
73322;DHT22;61549;37.044;22.128;2023-02-28T12:42:19;24.90;40.30
73322;DHT22;61549;37.044;22.128;2023-02-28T12:45:13;24.90;40.20
73322;DHT22;61549;37.044;22.128;2023-02-28T12:47:38;24.90;38.50
73322;DHT22;61549;37.044;22.128;2023-02-28T12:50:10;24.90;38.40
73322;DHT22;61549;37.044;22.128;2023-02-28T12:58:27;24.60;40.70
73322;DHT22;61549;37.044;22.128;2023-02-28T13:09:37;24.40;43.00
73322;DHT22;61549;37.044;22.128;2023-02-28T13:12:13;24.70;42.40
73322;DHT22;61549;37.044;22.128;2023-02-28T13:14:40;24.90;41.80
73322;DHT22;61549;37.044;22.128;2023-02-28T13:19:37;25.30;40.10
73322;DHT22;61549;37.044;22.128;2023-02-28T13:22:04;25.40;40.20
73322;DHT22;61549;37.044;22.128;2023-02-28T13:24:40;25.60;38.50
73322;DHT22;61549;37.044;22.128;2023-02-28T13:29:43;25.80;37.70
73322;DHT22;61549;37.044;22.128;2023-02-28T13:34:39;25.60;35.20
73322;DHT22;61549;37.044;22.128;2023-02-28T13:40:30;25.70;34.00
73322;DHT22;61549;37.044;22.128;2023-02-28T13:42:49;25.70;34.60
73322;DHT22;61549;37.044;22.128;2023-02-28T13:48:39;25.70;34.10
73322;DHT22;61549;37.044;22.128;2023-02-28T13:51:38;25.50;36.30
73322;DHT22;61549;37.044;22.128;2023-02-28T14:00:28;25.20;38.70
73322;DHT22;61549;37.044;22.128;2023-02-28T14:05:33;25.10;36.80
73322;DHT22;61549;37.044;22.128;2023-02-28T14:08:24;24.80;34.50
73322;DHT22;61549;37.044;22.128;2023-02-28T14:11:04;24.60;35.60
73322;DHT22;61549;37.044;22.128;2023-02-28T14:16:05;24.30;36.50
73322;DHT22;61549;37.044;22.128;2023-02-28T14:18:34;24.30;37.00
73322;DHT22;61549;37.044;22.128;2023-02-28T14:21:19;24.20;37.80
73322;DHT22;61549;37.044;22.128;2023-02-28T14:26:27;24.20;37.40
73322;DHT22;61549;37.044;22.128;2023-02-28T14:31:58;24.00;37.60
73322;DHT22;61549;37.044;22.128;2023-02-28T14:34:51;24.00;38.10
73322;DHT22;61549;37.044;22.128;2023-02-28T14:37:20;23.90;37.50
73322;DHT22;61549;37.044;22.128;2023-02-28T14:39:49;23.80;38.20
73322;DHT22;61549;37.044;22.128;2023-02-28T14:42:34;23.90;38.30
73322;DHT22;61549;37.044;22.128;2023-02-28T14:45:01;23.90;37.60
73322;DHT22;61549;37.044;22.128;2023-02-28T14:47:30;23.90;37.70
73322;DHT22;61549;37.044;22.128;2023-02-28T14:49:58;23.80;36.80
73322;DHT22;61549;37.044;22.128;2023-02-28T14:52:26;23.70;37.20
73322;DHT22;61549;37.044;22.128;2023-02-28T14:55:04;23.60;38.10
73322;DHT22;61549;37.044;22.128;2023-02-28T14:57:33;23.60;38.30
73322;DHT22;61549;37.044;22.128;2023-02-28T15:00:16;23.50;38.80
73322;DHT22;61549;37.044;22.128;2023-02-28T15:02:43;23.40;39.00
73322;DHT22;61549;37.044;22.128;2023-02-28T15:07:38;23.40;39.80
73322;DHT22;61549;37.044;22.128;2023-02-28T15:13:06;23.10;42.00
73322;DHT22;61549;37.044;22.128;2023-02-28T15:15:52;23.10;42.30
73322;DHT22;61549;37.044;22.128;2023-02-28T15:20:51;23.20;41.30
73322;DHT22;61549;37.044;22.128;2023-02-28T15:23:20;23.20;39.80
73322;DHT22;61549;37.044;22.128;2023-02-28T15:25:47;23.10;38.90
73322;DHT22;61549;37.044;22.128;2023-02-28T15:28:18;23.10;38.90
73322;DHT22;61549;37.044;22.128;2023-02-28T15:30:53;23.00;39.10
73322;DHT22;61549;37.044;22.128;2023-02-28T15:33:28;22.90;39.60
73322;DHT22;61549;37.044;22.128;2023-02-28T15:36:16;23.00;40.10
73322;DHT22;61549;37.044;22.128;2023-02-28T15:38:44;23.00;40.30
73322;DHT22;61549;37.044;22.128;2023-02-28T15:43:49;22.80;39.80
73322;DHT22;61549;37.044;22.128;2023-02-28T15:46:36;22.80;40.40
73322;DHT22;61549;37.044;22.128;2023-02-28T15:49:03;22.80;40.30
73322;DHT22;61549;37.044;22.128;2023-02-28T15:51:38;22.90;40.50
73322;DHT22;61549;37.044;22.128;2023-02-28T15:54:12;23.10;40.40
73322;DHT22;61549;37.044;22.128;2023-02-28T15:56:45;23.10;40.20
73322;DHT22;61549;37.044;22.128;2023-02-28T15:59:29;23.10;40.70
73322;DHT22;61549;37.044;22.128;2023-02-28T16:02:20;23.10;41.10
73322;DHT22;61549;37.044;22.128;2023-02-28T16:07:26;23.10;42.00
73322;DHT22;61549;37.044;22.128;2023-02-28T16:09:52;23.10;42.60
73322;DHT22;61549;37.044;22.128;2023-02-28T16:12:19;23.10;43.00
73322;DHT22;61549;37.044;22.128;2023-02-28T16:14:52;23.00;43.10
73322;DHT22;61549;37.044;22.128;2023-02-28T16:17:24;23.00;43.50
73322;DHT22;61549;37.044;22.128;2023-02-28T16:19:53;22.90;43.70
73322;DHT22;61549;37.044;22.128;2023-02-28T16:22:20;22.80;42.70
73322;DHT22;61549;37.044;22.128;2023-02-28T16:24:45;22.70;43.00
73322;DHT22;61549;37.044;22.128;2023-02-28T16:27:33;22.60;44.20
73322;DHT22;61549;37.044;22.128;2023-02-28T16:30:01;22.50;44.20
73322;DHT22;61549;37.044;22.128;2023-02-28T16:32:28;22.40;44.40
73322;DHT22;61549;37.044;22.128;2023-02-28T16:34:57;22.20;44.30
73322;DHT22;61549;37.044;22.128;2023-02-28T16:37:22;22.10;43.90
73322;DHT22;61549;37.044;22.128;2023-02-28T16:39:48;22.00;44.30
73322;DHT22;61549;37.044;22.128;2023-02-28T16:42:20;22.00;45.00
73322;DHT22;61549;37.044;22.128;2023-02-28T16:44:48;21.90;44.90
73322;DHT22;61549;37.044;22.128;2023-02-28T16:47:13;21.70;44.30
73322;DHT22;61549;37.044;22.128;2023-02-28T16:49:39;21.70;44.40
73322;DHT22;61549;37.044;22.128;2023-02-28T16:52:08;21.60;44.70
73322;DHT22;61549;37.044;22.128;2023-02-28T16:54:34;21.50;44.40
73322;DHT22;61549;37.044;22.128;2023-02-28T16:56:59;21.50;44.80
73322;DHT22;61549;37.044;22.128;2023-02-28T16:59:26;21.40;44.50
73322;DHT22;61549;37.044;22.128;2023-02-28T17:01:54;21.40;44.60
73322;DHT22;61549;37.044;22.128;2023-02-28T17:04:20;21.40;44.20
73322;DHT22;61549;37.044;22.128;2023-02-28T17:06:46;21.30;44.40
73322;DHT22;61549;37.044;22.128;2023-02-28T17:09:18;21.40;43.80
73322;DHT22;61549;37.044;22.128;2023-02-28T17:11:45;21.40;43.80
73322;DHT22;61549;37.044;22.128;2023-02-28T17:14:12;21.30;43.90
73322;DHT22;61549;37.044;22.128;2023-02-28T17:16:38;21.30;43.70
73322;DHT22;61549;37.044;22.128;2023-02-28T17:19:12;21.20;42.80
73322;DHT22;61549;37.044;22.128;2023-02-28T17:21:39;21.20;43.30
73322;DHT22;61549;37.044;22.128;2023-02-28T17:24:07;21.10;42.80
73322;DHT22;61549;37.044;22.128;2023-02-28T17:26:33;21.10;43.10
73322;DHT22;61549;37.044;22.128;2023-02-28T17:28:59;21.10;42.60
73322;DHT22;61549;37.044;22.128;2023-02-28T17:31:26;21.00;42.00
73322;DHT22;61549;37.044;22.128;2023-02-28T17:33:53;21.00;41.60
73322;DHT22;61549;37.044;22.128;2023-02-28T17:36:25;21.00;41.40
73322;DHT22;61549;37.044;22.128;2023-02-28T17:38:53;21.10;41.60
73322;DHT22;61549;37.044;22.128;2023-02-28T17:41:20;21.20;41.70
73322;DHT22;61549;37.044;22.128;2023-02-28T17:43:45;21.20;41.90
73322;DHT22;61549;37.044;22.128;2023-02-28T17:46:17;21.20;41.70
73322;DHT22;61549;37.044;22.128;2023-02-28T17:48:49;21.20;41.30
73322;DHT22;61549;37.044;22.128;2023-02-28T17:51:16;21.10;41.30
73322;DHT22;61549;37.044;22.128;2023-02-28T17:53:43;21.10;41.20
73322;DHT22;61549;37.044;22.128;2023-02-28T17:56:35;21.20;41.20
73322;DHT22;61549;37.044;22.128;2023-02-28T17:59:01;21.20;40.90
73322;DHT22;61549;37.044;22.128;2023-02-28T18:01:27;21.10;41.10
73322;DHT22;61549;37.044;22.128;2023-02-28T18:03:54;21.00;41.60
73322;DHT22;61549;37.044;22.128;2023-02-28T18:06:25;21.00;41.70
73322;DHT22;61549;37.044;22.128;2023-02-28T18:08:53;21.00;41.20
73322;DHT22;61549;37.044;22.128;2023-02-28T18:11:21;21.00;41.40
73322;DHT22;61549;37.044;22.128;2023-02-28T18:13:52;20.90;41.20
73322;DHT22;61549;37.044;22.128;2023-02-28T18:16:19;20.90;41.60
73322;DHT22;61549;37.044;22.128;2023-02-28T18:18:46;20.90;41.60
73322;DHT22;61549;37.044;22.128;2023-02-28T18:21:16;20.80;41.70
73322;DHT22;61549;37.044;22.128;2023-02-28T18:23:43;20.80;42.00
73322;DHT22;61549;37.044;22.128;2023-02-28T18:26:14;20.80;41.60